Latest Weather Observations for Leinster

IDW60801

Issued at 11:02 pm WST Thursday 18 December 2014 (issued every 30 minutes, with the page automatically refreshed every 10 minutes)

About weather observations | Map of weather stations | Latest weather observations for WA | Other Formats
Station Details ID: 012314 Name: LEINSTER AERO Lat: -27.84 Lon: 120.70 Height: 497.0 m
Data from the previous 72 hours. | See also: Recent months at Leinster
Date/Time
WST
Temp
°C
App
Temp
°C
Dew
Point
Rel
Hum
%
Delta-T
°C
Wind Press
QNH
hPa
Press
MSL
hPa
Rain
since 9 am
mm
Dir
 
Spd
km/h
Gust
km/h
Spd
kts
Gust
kts
18/11:00pm 30.1 26.8 9.6 28 11.8 E 17 24 9 13 1012.7 1009.2 0.0
18/10:30pm 30.4 26.8 9.8 28 11.9 E 19 26 10 14 1012.6 1009.1 0.0
18/10:00pm 30.8 27.7 10.2 28 12.0 E 17 26 9 14 1012.7 1009.2 0.0
18/09:30pm 31.2 27.6 10.0 27 12.3 E 19 28 10 15 1012.5 1009.0 0.0
18/09:00pm 31.4 27.9 10.2 27 12.4 ESE 19 26 10 14 1012.5 1009.0 0.0
18/08:30pm 31.8 28.8 10.5 27 12.5 ESE 17 22 9 12 1012.2 1008.6 0.0
18/08:00pm 32.3 29.6 10.4 26 12.9 ESE 15 26 8 14 1012.1 1008.5 0.0
18/07:30pm 32.8 29.5 10.8 26 13.0 ESE 19 28 10 15 1011.7 1008.2 0.0
18/07:00pm 33.3 30.9 10.0 24 13.7 ESE 13 22 7 12 1011.4 1007.9 0.0
18/06:30pm 34.0 31.0 9.3 22 14.4 E 15 22 8 12 1011.2 1007.7 0.0
18/06:00pm 34.5 31.2 9.7 22 14.6 ESE 17 24 9 13 1011.0 1007.5 0.0
18/05:30pm 34.7 31.9 9.9 22 14.6 ESE 15 24 8 13 1010.8 1007.3 0.0
18/05:00pm 34.2 31.2 9.4 22 14.5 ESE 15 24 8 13 1010.7 1007.2 0.0
18/04:30pm 35.4 32.1 9.7 21 15.1 E 17 28 9 15 1010.7 1007.2 0.0
18/04:00pm 35.1 31.2 9.5 21 15.0 E 20 32 11 17 1010.9 1007.4 0.0
18/03:30pm 34.4 30.7 10.3 23 14.3 ENE 20 30 11 16 1011.0 1007.5 0.0
18/03:00pm 34.2 30.5 10.1 23 14.2 SE 20 32 11 17 1011.1 1007.6 0.0
18/02:30pm 33.5 30.8 10.2 24 13.7 ESE 15 24 8 13 1011.5 1008.0 0.0
18/02:00pm 33.9 30.3 10.5 24 13.9 E 20 30 11 16 1011.9 1008.3 0.0
18/01:30pm 33.0 29.7 10.9 26 13.1 E 19 30 10 16 1012.2 1008.6 0.0
18/01:00pm 31.7 27.5 11.0 28 12.2 ESE 24 33 13 18 1012.5 1009.0 0.0
18/12:30pm 32.0 27.8 11.2 28 12.3 SE 24 35 13 19 1012.8 1009.3 0.0
18/12:01pm 31.1 26.1 11.0 29 11.8 ESE 28 46 15 25 1013.1 1009.6 0.0
18/12:00pm 31.0 26.5 11.4 30 11.6 ESE 26 46 14 25 1013.2 1009.7 0.0
18/11:30am 29.9 26.3 10.5 30 11.3 ESE 20 41 11 22 1013.5 1010.0 0.0
18/11:00am 28.7 24.2 9.9 31 10.8 ESE 24 33 13 18 1013.8 1010.3 0.0
18/10:30am 27.9 23.2 10.6 34 10.0 ESE 26 35 14 19 1014.1 1010.6 0.0
18/10:00am 27.0 21.4 10.2 35 9.6 SE 30 41 16 22 1014.0 1010.4 0.0
18/09:30am 25.4 19.9 10.4 39 8.5 ESE 30 43 16 23 1014.1 1010.6 0.0
18/09:00am 24.2 19.5 10.5 42 7.8 ESE 26 37 14 20 1014.4 1010.9 0.0
18/08:30am 23.2 17.9 9.9 43 7.4 E 28 41 15 22 1014.5 1011.0 0.0
18/08:00am 22.4 16.4 10.2 46 6.8 ESE 32 46 17 25 1014.4 1010.9 0.0
18/07:30am 21.7 16.5 10.2 48 6.4 ESE 28 44 15 24 1014.3 1010.8 0.0
18/07:00am 21.2 15.0 10.1 49 6.2 SE 33 44 18 24 1013.7 1010.2 0.0
18/06:30am 20.8 14.8 10.0 50 6.0 SE 32 44 17 24 1013.2 1009.7 0.0
18/06:00am 20.8 15.2 10.0 50 6.0 ESE 30 44 16 24 1012.6 1009.1 0.0
18/05:30am 21.4 16.8 9.6 47 6.5 ESE 24 35 13 19 1011.9 1008.3 0.0
18/05:00am 22.2 16.4 9.4 44 7.1 SE 30 39 16 21 1011.1 1007.6 0.0
18/04:30am 23.1 17.5 8.8 40 7.8 SE 28 41 15 22 1010.6 1007.1 0.0
18/04:01am 24.3 18.6 8.3 36 8.7 SE 28 48 15 26 1009.9 1006.3 0.0
18/04:00am 24.3 18.9 7.9 35 8.9 SE 26 43 14 23 1009.9 1006.3 0.0
18/03:30am 24.9 18.7 2.4 23 11.1 SE 24 32 13 17 1009.4 1005.9 0.0
18/03:00am 25.5 19.2 1.6 21 11.7 SE 24 33 13 18 1009.1 1005.6 0.0
18/02:30am 26.1 19.8 1.4 20 12.1 SE 24 32 13 17 1009.1 1005.6 0.0
18/02:00am 26.5 20.6 1.7 20 12.2 SE 22 30 12 16 1009.1 1005.6 0.0
18/01:30am 26.8 21.8 1.3 19 12.5 SE 17 22 9 12 1009.1 1005.6 0.0
18/01:00am 27.6 21.6 1.2 18 13.0 SE 22 30 12 16 1008.9 1005.4 0.0
18/12:30am 28.1 21.8 -0.9 15 13.8 SE 22 30 12 16 1008.9 1005.4 0.0
18/12:00am 28.5 21.5 -3.6 12 14.6 SSE 24 32 13 17 1008.8 1005.3 0.0
 
Date/Time
WST
Temp
°C
App
Temp
°C
Dew
Point
Rel
Hum
%
Delta-T
°C
Wind Press
QNH
hPa
Press
MSL
hPa
Rain
since 9 am
mm
Dir
 
Spd
km/h
Gust
km/h
Spd
kts
Gust
kts
17/11:30pm 29.4 21.8 -5.4 10 15.4 SSE 26 41 14 22 1008.7 1005.2 0.0
17/11:00pm 30.1 22.4 -6.2 9 16.0 S 26 37 14 20 1008.5 1004.9 0.0
17/10:30pm 30.9 23.5 -7.1 8 16.6 S 24 33 13 18 1008.4 1004.8 0.0
17/10:00pm 31.3 24.6 -8.6 7 17.1 S 20 28 11 15 1008.3 1004.7 0.0
17/09:30pm 31.7 25.2 -8.3 7 17.2 SSW 19 24 10 13 1008.1 1004.5 0.0
17/09:00pm 32.2 25.5 -7.9 7 17.5 SSW 20 28 11 15 1007.8 1004.2 0.0
17/08:30pm 32.5 26.0 -7.7 7 17.6 S 19 28 10 15 1007.3 1003.8 0.0
17/08:00pm 32.9 26.6 -5.7 8 17.6 S 19 26 10 14 1007.1 1003.6 0.0
17/07:30pm 33.3 26.9 -5.4 8 17.7 S 20 30 11 16 1006.7 1003.1 0.0
17/07:00pm 34.0 27.8 -4.9 8 18.1 SSW 19 26 10 14 1006.3 1002.7 0.0
17/06:30pm 34.7 27.6 -4.4 8 18.4 SSW 24 32 13 17 1006.0 1002.4 0.0
17/06:00pm 35.8 29.0 -5.3 7 19.2 SW 22 33 12 18 1005.7 1002.1 0.0
17/05:30pm 35.2 28.1 -4.0 8 18.6 SW 24 35 13 19 1005.2 1001.7 0.0
17/05:00pm 35.8 28.6 -5.3 7 19.2 SW 24 33 13 18 1005.0 1001.5 0.0
17/04:30pm 36.6 30.0 -3.0 8 19.3 WSW 22 32 12 17 1004.8 1001.2 0.0
17/04:00pm 37.0 30.5 -2.7 8 19.5 SW 22 39 12 21 1004.6 1001.0 0.0
17/03:30pm 37.9 31.2 -3.8 7 20.2 WSW 22 33 12 18 1004.6 1001.0 0.0
17/03:00pm 37.8 31.7 -2.1 8 19.9 WSW 20 32 11 17 1004.9 1001.4 0.0
17/02:30pm 37.3 31.4 -2.4 8 19.6 WNW 19 32 10 17 1005.0 1001.5 0.0
17/02:00pm 37.6 30.2 -4.0 7 20.1 WSW 26 39 14 21 1005.3 1001.8 0.0
17/01:30pm 37.4 31.1 -4.2 7 20.0 W 20 32 11 17 1005.3 1001.8 0.0
17/01:00pm 37.4 31.5 -2.4 8 19.7 WSW 19 32 10 17 1005.5 1001.9 0.0
17/12:30pm 37.5 31.0 -2.3 8 19.7 WSW 22 35 12 19 1005.9 1002.3 0.0
17/12:00pm 35.8 30.3 -2.0 9 18.6 SW 17 35 9 19 1006.0 1002.4 0.0
17/11:30am 36.5 30.5 -1.4 9 18.9 WSW 20 33 11 18 1006.4 1002.8 0.0
17/11:00am 37.0 31.4 -2.7 8 19.5 SW 17 26 9 14 1006.6 1003.0 0.0
17/10:30am 34.2 28.9 -0.4 11 17.3 SW 17 26 9 14 1006.9 1003.4 0.0
17/10:00am 33.8 29.4 0.5 12 16.9 SW 13 20 7 11 1007.0 1003.5 0.0
17/09:30am 32.9 27.8 0.9 13 16.2 SW 17 26 9 14 1007.0 1003.5 0.0
17/09:00am 31.8 27.1 1.0 14 15.5 SSW 15 24 8 13 1006.9 1003.4 0.0
17/08:30am 30.7 26.2 2.0 16 14.6 SSW 15 24 8 13 1007.0 1003.5 0.0
17/08:00am 28.9 24.3 1.4 17 13.7 S 15 28 8 15 1006.9 1003.4 0.0
17/07:30am 28.2 23.3 1.7 18 13.2 SSW 17 22 9 12 1006.8 1003.3 0.0
17/07:00am 28.1 23.6 2.3 19 13.0 SSW 15 19 8 10 1006.8 1003.3 0.0
17/06:30am 25.8 22.4 1.8 21 11.8 SSW 9 15 5 8 1006.5 1002.9 0.0
17/06:00am 24.0 21.0 2.2 24 10.7 SW 7 7 4 4 1006.1 1002.5 0.0
17/05:30am 22.4 20.1 2.5 27 9.7 WSW 4 11 2 6 1005.7 1002.1 0.0
17/05:00am 22.4 20.8 2.5 27 9.7 CALM 0 0 0 0 1005.3 1001.8 0.0
17/04:30am 23.0 21.3 1.9 25 10.2 CALM 0 0 0 0 1005.0 1001.5 0.0
17/04:00am 24.8 22.0 2.3 23 11.1 SE 6 6 3 3 1004.9 1001.4 0.0
17/03:30am 25.4 22.6 2.2 22 11.4 SE 6 7 3 4 1005.0 1001.5 0.0
17/03:00am 25.8 22.9 2.5 22 11.6 ESE 7 13 4 7 1005.0 1001.5 0.0
17/02:30am 26.3 23.0 2.3 21 11.9 SE 9 15 5 8 1005.1 1001.6 0.0
17/02:00am 26.3 22.7 2.9 22 11.8 ESE 11 17 6 9 1005.3 1001.8 0.0
17/01:30am 26.2 23.0 2.8 22 11.7 SSE 9 13 5 7 1005.7 1002.1 0.0
17/01:00am 26.6 23.3 2.5 21 12.1 SE 9 13 5 7 1005.9 1002.3 0.0
17/12:30am 26.7 23.3 1.9 20 12.3 SE 9 11 5 6 1006.3 1002.7 0.0
17/12:00am 27.0 23.9 1.4 19 12.6 SE 7 9 4 5 1006.6 1003.0 0.0
 
Date/Time
WST
Temp
°C
App
Temp
°C
Dew
Point
Rel
Hum
%
Delta-T
°C
Wind Press
QNH
hPa
Press
MSL
hPa
Rain
since 9 am
mm
Dir
 
Spd
km/h
Gust
km/h
Spd
kts
Gust
kts
16/11:30pm 27.1 24.0 1.5 19 12.6 SE 7 9 4 5 1006.9 1003.4 0.0
16/11:00pm 27.6 24.5 1.2 18 13.0 SSE 7 9 4 5 1007.0 1003.5 0.0
16/10:30pm 28.7 25.2 1.3 17 13.6 SE 9 11 5 6 1007.0 1003.5 0.0
16/10:00pm 29.2 25.2 0.8 16 14.0 ESE 11 13 6 7 1007.2 1003.7 0.0
16/09:30pm 30.0 26.8 0.6 15 14.5 ESE 7 9 4 5 1007.2 1003.7 0.0
16/09:00pm 30.9 27.3 0.3 14 15.2 SE 9 13 5 7 1007.1 1003.6 0.0
16/08:30pm 31.6 28.4 0.9 14 15.4 E 7 9 4 5 1006.9 1003.4 0.0
16/08:00pm 32.0 29.3 0.2 13 15.9 S 4 7 2 4 1006.8 1003.3 0.0
16/07:30pm 33.1 30.0 -0.1 12 16.5 S 6 7 3 4 1006.8 1003.3 0.0
16/07:00pm 33.7 30.3 -0.8 11 17.1 SSW 7 9 4 5 1006.7 1003.1 0.0
16/06:30pm 34.4 31.0 -0.3 11 17.4 W 7 11 4 6 1006.6 1003.0 0.0
16/06:00pm 34.7 30.6 -0.1 11 17.6 WSW 11 15 6 8 1006.5 1002.9 0.0
16/05:30pm 35.1 30.5 -1.1 10 18.0 WSW 13 20 7 11 1006.4 1002.8 0.0
16/05:00pm 35.6 32.4 -0.7 10 18.2 SW 6 11 3 6 1006.4 1002.8 0.0
16/04:30pm 35.7 32.9 -0.6 10 18.2 WNW 4 9 2 5 1006.4 1002.8 0.0
16/04:00pm 35.2 31.4 -1.0 10 18.1 NE 9 15 5 8 1006.7 1003.1 0.0
16/03:30pm 35.5 31.3 -0.8 10 18.2 N 11 19 6 10 1007.0 1003.5 0.0
16/03:00pm 34.5 30.6 -1.5 10 17.7 SSW 9 20 5 11 1007.6 1004.0 0.0
16/02:30pm 34.7 30.8 -1.4 10 17.8 WSW 9 15 5 8 1008.1 1004.5 0.0
16/02:00pm 33.7 29.1 -0.8 11 17.1 ENE 13 19 7 10 1008.6 1005.1 0.0
16/01:30pm 33.6 29.2 0.3 12 16.8 ESE 13 19 7 10 1008.9 1005.4 0.0
16/01:00pm 33.2 28.9 1.1 13 16.3 SSE 13 20 7 11 1009.3 1005.8 0.0
16/12:30pm 32.2 28.3 1.3 14 15.7 ESE 11 28 6 15 1009.8 1006.2 0.0
16/12:00pm 31.9 27.6 1.1 14 15.6 E 13 24 7 13 1010.2 1006.6 0.0
16/11:30am 31.2 26.7 4.1 18 14.3 E 17 30 9 16 1010.5 1007.0 0.0
16/11:00am 30.8 25.8 4.5 19 14.0 E 20 30 11 16 1010.8 1007.3 0.0
16/10:30am 29.5 25.1 7.4 25 12.2 E 20 32 11 17 1011.3 1007.8 0.0
16/10:00am 28.6 24.3 7.8 27 11.5 ESE 20 28 11 15 1011.9 1008.3 0.0
16/09:30am 28.4 23.8 8.1 28 11.3 E 22 30 12 16 1011.9 1008.3 0.0
16/09:00am 27.5 23.3 8.4 30 10.6 ESE 20 33 11 18 1012.0 1008.4 0.0
16/08:30am 26.5 22.7 8.9 33 9.8 ESE 19 30 10 16 1012.0 1008.4 0.0
16/08:00am 25.5 21.7 8.9 35 9.2 E 19 30 10 16 1012.1 1008.5 0.0
16/07:30am 24.5 19.6 8.5 36 8.8 ESE 24 33 13 18 1011.9 1008.3 0.0
16/07:00am 23.9 18.5 7.9 36 8.7 ESE 26 37 14 20 1011.5 1008.0 0.0
16/06:30am 24.0 18.2 2.2 24 10.6 ESE 22 35 12 19 1011.0 1007.5 0.0
16/06:00am 23.0 17.3 0.8 23 10.5 SSE 20 28 11 15 1010.4 1006.8 0.0
16/05:30am 22.2 17.0 0.1 23 10.2 SSE 17 20 9 11 1010.2 1006.6 0.0
16/05:00am 22.0 16.8 -0.1 23 10.2 SSE 17 22 9 12 1009.5 1006.0 0.0
16/04:30am 22.0 16.7 -0.7 22 10.3 SSE 17 20 9 11 1009.2 1005.7 0.0
16/04:00am 22.5 17.5 -0.9 21 10.7 SSE 15 20 8 11 1009.0 1005.5 0.0
16/03:30am 22.5 17.7 -2.2 19 11.0 SSE 13 19 7 10 1008.7 1005.2 0.0
16/03:00am 22.9 17.7 -2.6 18 11.3 S 15 19 8 10 1008.7 1005.2 0.0
16/02:30am 23.4 17.7 -3.8 16 11.8 SSE 17 20 9 11 1008.8 1005.3 0.0
16/02:00am 24.0 18.1 -6.1 13 12.6 SSE 17 22 9 12 1008.7 1005.2 0.0
16/01:30am 24.6 19.0 -6.7 12 13.0 S 15 19 8 10 1008.5 1004.9 0.0
16/01:00am 25.4 18.9 -8.4 10 13.7 S 19 24 10 13 1008.5 1004.9 0.0
16/12:30am 26.0 19.5 -7.9 10 13.9 S 19 24 10 13 1008.5 1004.9 0.0
16/12:00am 26.6 20.3 -6.2 11 14.0 S 19 26 10 14 1008.7 1005.2 0.0
 
Date/Time
WST
Temp
°C
App
Temp
°C
Dew
Point
Rel
Hum
%
Delta-T
°C
Wind Press
QNH
hPa
Press
MSL
hPa
Rain
since 9 am
mm
Dir
 
Spd
km/h
Gust
km/h
Spd
kts
Gust
kts
15/11:30pm 27.2 20.3 -5.8 11 14.3 SSW 22 30 12 16 1008.6 1005.1 0.0

Other Formats:

Comma delimited format used in spreadsheet applications
http://www.bom.gov.au/fwo/IDW60801/IDW60801.95448.axf

JavaScript Object Notation format (JSON) in row-major order
http://www.bom.gov.au/fwo/IDW60801/IDW60801.95448.json